createdAt,value
2023-02-04T00:02:01.910Z,27.10
2023-02-04T00:07:03.914Z,27.10
2023-02-04T00:12:06.008Z,27.00
2023-02-04T00:17:10.216Z,27.00
2023-02-04T00:22:12.244Z,27.10
2023-02-04T00:27:14.635Z,26.80
2023-02-04T00:32:16.681Z,26.70
2023-02-04T00:37:18.897Z,26.60
2023-02-04T00:42:20.966Z,26.50
2023-02-04T00:47:22.956Z,26.30
2023-02-04T00:52:24.956Z,26.20
2023-02-04T00:57:27.838Z,26.20
2023-02-04T01:02:29.858Z,26.00
2023-02-04T01:07:32.421Z,26.00
2023-02-04T01:12:34.690Z,26.60
2023-02-04T01:17:36.915Z,26.20
2023-02-04T01:22:38.979Z,26.00
2023-02-04T01:27:41.180Z,26.00
2023-02-04T01:32:43.243Z,26.10
2023-02-04T01:37:45.314Z,25.80
2023-02-04T01:42:49.202Z,25.80
2023-02-04T01:47:51.375Z,25.70
2023-02-04T01:52:53.381Z,25.50
2023-02-04T01:57:58.642Z,25.10
2023-02-04T02:03:01.166Z,25.00
2023-02-04T02:08:04.782Z,25.00
2023-02-04T02:13:08.372Z,25.00
2023-02-04T02:18:13.039Z,25.10
2023-02-04T02:23:44.126Z,25.50
2023-02-04T02:28:50.413Z,25.90
2023-02-04T02:33:52.411Z,26.70
2023-02-04T02:38:55.979Z,26.40
2023-02-04T02:43:58.028Z,26.70
2023-02-04T02:49:00.095Z,26.60
2023-02-04T02:54:02.137Z,26.60
2023-02-04T02:59:12.947Z,26.60
2023-02-04T03:04:15.373Z,26.90
2023-02-04T03:09:17.644Z,27.00
2023-02-04T03:14:24.164Z,27.10
2023-02-04T03:19:26.913Z,27.30
2023-02-04T03:24:30.505Z,27.30
2023-02-04T03:29:33.576Z,27.50
2023-02-04T03:34:35.633Z,27.60
2023-02-04T03:39:37.606Z,27.60
2023-02-04T03:44:39.581Z,27.60
2023-02-04T03:49:41.556Z,27.70
2023-02-04T03:54:43.591Z,27.80
2023-02-04T03:59:45.588Z,27.90
2023-02-04T04:04:47.578Z,27.80
2023-02-04T04:09:49.579Z,27.90
2023-02-04T04:14:51.731Z,27.90
2023-02-04T04:19:54.196Z,28.00
2023-02-04T04:24:56.514Z,28.00
2023-02-04T04:29:58.626Z,28.10
2023-02-04T04:35:00.685Z,28.10
2023-02-04T04:40:02.823Z,28.20
2023-02-04T04:45:08.828Z,28.30
2023-02-04T04:50:11.101Z,28.30
2023-02-04T04:55:13.129Z,28.20
2023-02-04T05:00:16.702Z,28.30
2023-02-04T05:05:18.767Z,28.30
2023-02-04T05:10:20.989Z,28.10
2023-02-04T05:15:23.002Z,28.10
2023-02-04T05:20:25.022Z,28.10
2023-02-04T05:25:27.769Z,28.10
2023-02-04T05:30:29.960Z,28.10
2023-02-04T05:35:32.073Z,28.00
2023-02-04T05:40:34.299Z,28.00
2023-02-04T05:45:36.549Z,28.00
2023-02-04T05:50:38.571Z,28.00
2023-02-04T05:55:43.281Z,28.00
2023-02-04T06:00:45.350Z,28.00
2023-02-04T06:05:47.396Z,28.10
2023-02-04T06:10:49.609Z,28.00
2023-02-04T06:15:51.621Z,28.10
2023-02-04T06:20:53.655Z,28.10
2023-02-04T06:25:55.711Z,28.10
2023-02-04T06:30:57.842Z,28.10
2023-02-04T06:36:00.014Z,28.10
2023-02-04T06:41:02.074Z,28.10
2023-02-04T06:46:04.158Z,28.10
2023-02-04T06:51:06.259Z,28.00
2023-02-04T06:56:08.329Z,28.00
2023-02-04T07:01:10.386Z,28.00
2023-02-04T07:06:12.514Z,28.10
2023-02-04T07:11:14.547Z,28.00
2023-02-04T07:16:16.623Z,28.10
2023-02-04T07:21:18.658Z,28.00
2023-02-04T07:26:20.778Z,28.10
2023-02-04T07:31:22.924Z,28.10
2023-02-04T07:36:26.268Z,28.20
2023-02-04T07:41:28.297Z,28.30
2023-02-04T07:46:30.389Z,28.30
2023-02-04T07:51:32.464Z,29.30
2023-02-04T07:56:34.634Z,28.50
2023-02-04T08:01:36.706Z,28.60
2023-02-04T08:06:38.787Z,28.70
2023-02-04T08:11:40.800Z,28.70
2023-02-04T08:16:42.857Z,28.70
2023-02-04T08:21:45.892Z,28.70
2023-02-04T08:26:47.914Z,28.80
2023-02-04T08:31:49.952Z,28.80
2023-02-04T08:36:52.051Z,28.80
2023-02-04T08:41:54.234Z,28.70
2023-02-04T08:46:56.321Z,28.80
2023-02-04T08:51:58.362Z,28.90
2023-02-04T08:57:00.699Z,28.60
2023-02-04T09:02:03.059Z,28.30
2023-02-04T09:07:05.055Z,28.00
2023-02-04T09:12:07.123Z,28.20
2023-02-04T09:17:09.156Z,28.00
2023-02-04T09:22:13.224Z,28.00
2023-02-04T09:27:15.298Z,28.00
2023-02-04T09:32:17.340Z,27.50
2023-02-04T09:37:19.321Z,27.10
2023-02-04T09:42:24.870Z,27.10
2023-02-04T09:47:27.457Z,27.10
2023-02-04T09:52:29.469Z,26.90
2023-02-04T09:57:31.422Z,26.80
2023-02-04T10:02:35.047Z,26.90
2023-02-04T10:07:37.087Z,26.50
2023-02-04T10:12:39.160Z,25.90
2023-02-04T10:17:41.711Z,25.50
2023-02-04T10:22:44.131Z,25.30
2023-02-04T10:27:49.434Z,24.60
2023-02-04T10:32:51.561Z,23.90
2023-02-04T10:38:03.845Z,24.00
2023-02-04T10:43:13.076Z,23.40
2023-02-04T10:48:19.013Z,23.40
2023-02-04T10:53:41.320Z,22.80
2023-02-04T10:58:43.506Z,22.80
2023-02-04T11:03:48.148Z,22.20
2023-02-04T11:08:53.418Z,22.20
2023-02-04T11:13:55.741Z,22.00
2023-02-04T11:18:59.318Z,21.40
2023-02-04T11:24:16.500Z,21.00
2023-02-04T11:29:26.249Z,21.20
2023-02-04T11:34:29.780Z,21.00
2023-02-04T11:39:34.127Z,20.80
2023-02-04T11:44:36.165Z,20.00
2023-02-04T11:49:38.208Z,20.10
2023-02-04T11:54:40.261Z,19.90
2023-02-04T11:59:42.322Z,19.40
2023-02-04T12:04:58.106Z,19.30
2023-02-04T12:10:10.716Z,19.50
2023-02-04T12:15:16.953Z,19.10
2023-02-04T12:20:18.955Z,18.50
2023-02-04T12:25:20.955Z,18.00
2023-02-04T12:30:23.751Z,18.70
2023-02-04T12:35:25.866Z,18.70
2023-02-04T12:40:28.208Z,18.50
2023-02-04T12:45:30.385Z,17.60
2023-02-04T12:50:32.648Z,17.10
2023-02-04T12:55:35.031Z,16.40
2023-02-04T13:00:37.334Z,16.20
2023-02-04T13:05:39.397Z,15.90
2023-02-04T13:10:41.442Z,16.40
2023-02-04T13:15:43.515Z,16.10
2023-02-04T13:20:46.402Z,16.10
2023-02-04T13:25:48.470Z,15.50
2023-02-04T13:30:50.678Z,15.60
2023-02-04T13:35:52.802Z,16.00
2023-02-04T13:40:54.814Z,15.40
2023-02-04T13:45:57.873Z,15.00
2023-02-04T13:50:59.989Z,15.40
2023-02-04T13:56:02.058Z,14.80
2023-02-04T14:01:04.229Z,14.40
2023-02-04T14:06:06.671Z,14.50
2023-02-04T14:11:08.714Z,14.40
2023-02-04T14:16:10.861Z,14.80
2023-02-04T14:21:12.903Z,15.00
2023-02-04T14:26:14.924Z,14.50
2023-02-04T14:31:17.210Z,14.70
2023-02-04T14:36:19.280Z,14.10
2023-02-04T14:41:21.380Z,13.70
2023-02-04T14:46:24.133Z,13.20
2023-02-04T14:51:26.207Z,12.90
2023-02-04T14:56:28.178Z,11.90
2023-02-04T15:01:31.143Z,11.70
2023-02-04T15:06:33.593Z,11.90
2023-02-04T15:11:35.611Z,11.80
2023-02-04T15:16:37.605Z,11.70
2023-02-04T15:21:39.556Z,11.80
2023-02-04T15:26:41.660Z,11.90
2023-02-04T15:31:43.757Z,12.00
2023-02-04T15:36:45.855Z,12.20
2023-02-04T15:41:47.881Z,12.30
2023-02-04T15:46:49.900Z,12.60
2023-02-04T15:51:51.998Z,12.60
2023-02-04T15:56:54.063Z,12.90
2023-02-04T16:01:56.085Z,13.10
2023-02-04T16:06:59.297Z,13.10
2023-02-04T16:12:01.328Z,13.20
2023-02-04T16:17:03.612Z,13.30
2023-02-04T16:22:06.256Z,13.40
2023-02-04T16:27:08.355Z,13.60
2023-02-04T16:32:10.475Z,13.60
2023-02-04T16:37:12.463Z,13.70
2023-02-04T16:42:14.892Z,13.90
2023-02-04T16:47:16.943Z,14.00
2023-02-04T16:52:18.988Z,14.20
2023-02-04T16:57:21.107Z,14.30
2023-02-04T17:02:23.157Z,14.40
2023-02-04T17:07:25.169Z,14.30
2023-02-04T17:12:27.140Z,14.20
2023-02-04T17:17:29.195Z,14.60
2023-02-04T17:22:31.182Z,14.70
2023-02-04T17:27:33.175Z,14.90
2023-02-04T17:32:35.271Z,15.10
2023-02-04T17:37:37.380Z,15.20
2023-02-04T17:42:39.965Z,15.30
2023-02-04T17:47:41.985Z,15.50
2023-02-04T17:52:44.088Z,15.60
2023-02-04T17:57:46.027Z,16.50
2023-02-04T18:02:49.932Z,15.80
2023-02-04T18:08:05.770Z,16.70
2023-02-04T18:13:14.540Z,17.00
2023-02-04T18:18:22.709Z,17.60
2023-02-04T18:23:25.509Z,17.20
2023-02-04T18:28:27.518Z,17.40
2023-02-04T18:33:32.025Z,17.40
2023-02-04T18:38:39.178Z,17.60
2023-02-04T18:43:41.424Z,17.70
2023-02-04T18:48:46.388Z,17.80
2023-02-04T18:53:48.578Z,18.10
2023-02-04T18:58:51.385Z,19.20
2023-02-04T19:03:55.711Z,19.30
2023-02-04T19:09:05.236Z,19.30
2023-02-04T19:14:26.010Z,19.50
2023-02-04T19:19:34.077Z,19.60
2023-02-04T19:24:36.077Z,19.60
2023-02-04T19:29:39.399Z,19.60
2023-02-04T19:34:41.410Z,19.70
2023-02-04T19:39:43.453Z,19.90
2023-02-04T19:44:46.443Z,19.70
2023-02-04T19:49:48.414Z,19.80
2023-02-04T19:54:50.421Z,19.70
2023-02-04T19:59:56.273Z,19.80
2023-02-04T20:04:58.398Z,19.90
2023-02-04T20:10:06.558Z,20.20
2023-02-04T20:15:16.327Z,20.00
2023-02-04T20:20:29.588Z,19.90
2023-02-04T20:25:34.901Z,20.10
2023-02-04T20:30:37.229Z,20.00
2023-02-04T20:35:39.228Z,20.10
2023-02-04T20:40:42.582Z,20.20
2023-02-04T20:45:50.187Z,20.20
2023-02-04T20:50:53.607Z,20.30
2023-02-04T20:56:03.618Z,20.30
2023-02-04T21:01:24.522Z,20.40
2023-02-04T21:06:31.738Z,20.40
2023-02-04T21:11:33.735Z,20.60
2023-02-04T21:16:35.727Z,20.70
2023-02-04T21:21:37.839Z,20.70
2023-02-04T21:26:40.188Z,21.60
2023-02-04T21:31:42.381Z,20.80
2023-02-04T21:36:44.405Z,20.80
2023-02-04T21:41:46.368Z,20.80
2023-02-04T21:46:48.347Z,20.80
2023-02-04T21:51:50.344Z,20.80
2023-02-04T21:56:52.381Z,20.90
2023-02-04T22:01:54.371Z,21.10
2023-02-04T22:06:56.519Z,21.10
2023-02-04T22:11:58.578Z,21.00
2023-02-04T22:17:00.699Z,21.00
2023-02-04T22:22:03.043Z,21.60
2023-02-04T22:27:05.551Z,21.00
2023-02-04T22:32:07.608Z,21.10
2023-02-04T22:37:09.655Z,21.20
2023-02-04T22:42:11.709Z,21.20
2023-02-04T22:47:13.780Z,21.10
2023-02-04T22:52:15.808Z,21.30
2023-02-04T22:57:17.840Z,21.20
2023-02-04T23:02:19.956Z,21.30
2023-02-04T23:07:22.144Z,21.50
2023-02-04T23:12:24.197Z,21.60
2023-02-04T23:17:26.252Z,21.60
2023-02-04T23:22:28.286Z,22.10
2023-02-04T23:27:30.405Z,21.50
2023-02-04T23:32:32.428Z,21.70
2023-02-04T23:37:34.910Z,21.70
2023-02-04T23:42:36.931Z,21.80
2023-02-04T23:47:38.993Z,21.80
2023-02-04T23:52:41.138Z,21.80
2023-02-04T23:57:43.518Z,21.90
